createdAt,value
2022-09-28T00:01:18.192Z,99143.03
2022-09-28T00:03:44.991Z,99143.28
2022-09-28T00:06:12.551Z,99143.47
2022-09-28T00:08:38.996Z,99142.44
2022-09-28T00:11:06.475Z,99131.84
2022-09-28T00:13:33.356Z,99139.44
2022-09-28T00:16:02.614Z,99144.47
2022-09-28T00:18:29.245Z,99136.28
2022-09-28T00:21:01.777Z,99133.84
2022-09-28T00:23:28.208Z,99134.63
2022-09-28T00:25:54.530Z,99133.41
2022-09-28T00:28:20.880Z,99125.81
2022-09-28T00:30:47.225Z,99116.47
2022-09-28T00:33:13.556Z,99134.97
2022-09-28T00:35:39.899Z,99121.28
2022-09-28T00:38:09.203Z,99125.19
2022-09-28T00:40:35.679Z,99121.34
2022-09-28T00:43:16.357Z,99114.25
2022-09-28T00:45:43.257Z,99115.91
2022-09-28T00:48:10.071Z,99113.66
2022-09-28T00:50:37.163Z,99108.09
2022-09-28T00:53:03.516Z,99106.50
2022-09-28T00:55:37.502Z,99109.00
2022-09-28T00:58:05.552Z,99098.44
2022-09-28T01:00:32.188Z,99096.81
2022-09-28T01:02:59.724Z,99092.41
2022-09-28T01:05:26.924Z,99094.44
2022-09-28T01:07:55.127Z,99095.97
2022-09-28T01:10:21.473Z,99103.03
2022-09-28T01:12:47.995Z,99107.09
2022-09-28T01:15:15.536Z,99097.41
2022-09-28T01:17:42.933Z,99095.78
2022-09-28T01:20:12.696Z,99105.44
2022-09-28T01:22:45.561Z,99110.66
2022-09-28T01:25:31.351Z,99101.66
2022-09-28T01:27:59.677Z,99108.28
2022-09-28T01:30:26.599Z,99110.06
2022-09-28T01:33:01.784Z,99108.84
2022-09-28T01:35:32.857Z,99105.25
2022-09-28T01:38:05.514Z,99104.25
2022-09-28T01:40:32.470Z,99097.41
2022-09-28T01:43:08.585Z,99101.47
2022-09-28T01:45:46.954Z,99097.41
2022-09-28T01:48:17.184Z,99100.25
2022-09-28T01:50:45.420Z,99098.66
2022-09-28T01:53:23.719Z,99100.47
2022-09-28T01:55:55.436Z,99102.09
2022-09-28T01:58:24.485Z,99100.50
2022-09-28T02:00:54.960Z,99092.06
2022-09-28T02:03:29.297Z,99091.09
2022-09-28T02:06:04.060Z,99089.09
2022-09-28T02:08:35.996Z,99091.50
2022-09-28T02:11:10.771Z,99084.06
2022-09-28T02:13:42.590Z,99085.47
2022-09-28T02:16:18.198Z,99092.50
2022-09-28T02:18:45.907Z,99093.13
2022-09-28T02:21:20.332Z,99083.88
2022-09-28T02:23:56.792Z,99093.94
2022-09-28T02:26:27.101Z,99096.78
2022-09-28T02:28:53.439Z,99095.75
2022-09-28T02:31:20.022Z,99090.56
2022-09-28T02:33:47.392Z,99092.94
2022-09-28T02:36:14.516Z,99090.13
2022-09-28T02:38:42.013Z,99099.38
2022-09-28T02:41:11.400Z,99091.56
2022-09-28T02:43:47.164Z,99098.59
2022-09-28T02:46:27.340Z,99096.25
2022-09-28T02:49:21.688Z,99094.19
2022-09-28T02:51:52.732Z,99096.00
2022-09-28T02:54:23.330Z,99090.81
2022-09-28T02:56:52.884Z,99095.06
2022-09-28T02:59:25.259Z,99093.03
2022-09-28T03:02:00.917Z,99093.66
2022-09-28T03:04:33.217Z,99089.19
2022-09-28T03:07:09.119Z,99095.00
2022-09-28T03:09:49.784Z,99089.16
2022-09-28T03:12:18.411Z,99099.56
2022-09-28T03:14:45.251Z,99093.97
2022-09-28T03:17:11.670Z,99106.19
2022-09-28T03:19:39.711Z,99108.59
2022-09-28T03:22:06.157Z,99115.28
2022-09-28T03:24:32.551Z,99115.06
2022-09-28T03:26:58.924Z,99111.09
2022-09-28T03:29:25.368Z,99110.06
2022-09-28T03:31:58.017Z,99109.03
2022-09-28T03:34:24.430Z,99108.47
2022-09-28T03:36:51.397Z,99107.88
2022-09-28T03:39:17.895Z,99108.44
2022-09-28T03:41:44.373Z,99105.66
2022-09-28T03:44:10.727Z,99102.03
2022-09-28T03:46:37.968Z,99103.47
2022-09-28T03:49:08.863Z,99102.66
2022-09-28T03:51:35.214Z,99102.25
2022-09-28T03:54:01.607Z,99110.50
2022-09-28T03:56:27.982Z,99110.69
2022-09-28T03:58:54.379Z,99113.28
2022-09-28T04:01:20.851Z,99108.84
2022-09-28T04:03:47.613Z,99102.03
2022-09-28T04:06:14.513Z,99100.63
2022-09-28T04:08:40.906Z,99108.84
2022-09-28T04:11:08.376Z,99109.84
2022-09-28T04:13:34.816Z,99106.03
2022-09-28T04:16:02.097Z,99106.03
2022-09-28T04:18:32.847Z,99105.44
2022-09-28T04:21:13.525Z,99098.44
2022-09-28T04:23:44.572Z,99103.22
2022-09-28T04:26:21.683Z,99101.66
2022-09-28T04:29:07.402Z,99101.66
2022-09-28T04:31:38.917Z,99104.84
2022-09-28T04:34:05.426Z,99106.88
2022-09-28T04:36:32.524Z,99114.31
2022-09-28T04:38:59.941Z,99113.28
2022-09-28T04:41:28.086Z,99112.91
2022-09-28T04:43:55.548Z,99105.69
2022-09-28T04:46:24.392Z,99109.28
2022-09-28T04:49:13.440Z,99106.25
2022-09-28T04:52:03.531Z,99106.88
2022-09-28T04:54:29.911Z,99108.88
2022-09-28T04:56:56.959Z,99110.88
2022-09-28T04:59:24.160Z,99100.63
2022-09-28T05:01:50.622Z,99102.88
2022-09-28T05:04:28.991Z,99100.03
2022-09-28T05:07:13.733Z,99107.25
2022-09-28T05:09:40.143Z,99101.22
2022-09-28T05:12:08.072Z,99109.28
2022-09-28T05:14:34.464Z,99109.06
2022-09-28T05:17:00.941Z,99112.47
2022-09-28T05:19:27.694Z,99113.50
2022-09-28T05:22:04.360Z,99117.47
2022-09-28T05:24:35.950Z,99109.88
2022-09-28T05:27:03.924Z,99119.28
2022-09-28T05:29:32.435Z,99121.34
2022-09-28T05:32:44.180Z,99119.09
2022-09-28T05:35:40.702Z,99121.72
2022-09-28T05:38:07.108Z,99122.34
2022-09-28T05:40:33.635Z,99120.72
2022-09-28T05:43:03.073Z,99120.69
2022-09-28T05:45:31.057Z,99124.09
2022-09-28T05:47:57.444Z,99127.53
2022-09-28T05:50:24.174Z,99123.53
2022-09-28T05:52:57.340Z,99129.53
2022-09-28T05:55:24.253Z,99133.72
2022-09-28T05:57:50.748Z,99134.75
2022-09-28T06:00:17.121Z,99138.34
2022-09-28T06:02:57.199Z,99141.56
2022-09-28T06:05:24.601Z,99136.75
2022-09-28T06:07:51.084Z,99139.31
2022-09-28T06:10:17.475Z,99139.16
2022-09-28T06:12:45.486Z,99149.41
2022-09-28T06:15:15.382Z,99140.16
2022-09-28T06:17:43.746Z,99147.19
2022-09-28T06:20:30.069Z,99143.94
2022-09-28T06:23:07.708Z,99143.94
2022-09-28T06:25:34.088Z,99147.34
2022-09-28T06:28:01.733Z,99143.94
2022-09-28T06:30:29.280Z,99137.28
2022-09-28T06:32:57.032Z,99146.34
2022-09-28T06:35:25.329Z,99153.75
2022-09-28T06:37:51.945Z,99161.97
2022-09-28T06:40:19.083Z,99169.19
2022-09-28T06:42:55.950Z,99173.59
2022-09-28T06:45:41.713Z,99170.78
2022-09-28T06:48:28.481Z,99172.81
2022-09-28T06:50:55.991Z,99175.03
2022-09-28T06:53:33.428Z,99175.25
2022-09-28T06:56:10.379Z,99179.84
2022-09-28T06:58:36.869Z,99177.03
2022-09-28T07:01:03.991Z,99178.81
2022-09-28T07:03:40.637Z,99178.59
2022-09-28T07:06:23.992Z,99188.88
2022-09-28T07:09:29.260Z,99186.19
2022-09-28T07:12:15.915Z,99189.00
2022-09-28T07:14:50.165Z,99197.22
2022-09-28T07:17:16.856Z,99197.28
2022-09-28T07:19:43.309Z,99202.91
2022-09-28T07:22:16.134Z,99211.13
2022-09-28T07:24:45.830Z,99200.88
2022-09-28T07:27:41.020Z,99202.63
2022-09-28T07:30:17.166Z,99202.69
2022-09-28T07:33:02.760Z,99204.31
2022-09-28T07:35:52.267Z,99206.72
2022-09-28T07:38:19.870Z,99207.31
2022-09-28T07:41:05.161Z,99220.94
2022-09-28T07:43:32.381Z,99218.34
2022-09-28T07:45:58.919Z,99219.94
2022-09-28T07:48:25.673Z,99218.75
2022-09-28T07:51:10.473Z,99226.38
2022-09-28T07:53:42.324Z,99220.34
2022-09-28T07:56:24.067Z,99222.56
2022-09-28T07:59:08.861Z,99227.16
2022-09-28T08:01:53.618Z,99228.56
2022-09-28T08:04:20.522Z,99236.41
2022-09-28T08:06:48.207Z,99234.38
2022-09-28T08:09:14.686Z,99237.78
2022-09-28T08:11:59.880Z,99237.59
2022-09-28T08:14:41.654Z,99245.25
2022-09-28T08:17:33.145Z,99244.84
2022-09-28T08:20:22.621Z,99251.25
2022-09-28T08:22:49.094Z,99254.47
2022-09-28T08:25:15.599Z,99255.88
2022-09-28T08:27:42.085Z,99253.25
2022-09-28T08:30:09.036Z,99269.72
2022-09-28T08:32:51.748Z,99270.47
2022-09-28T08:35:38.919Z,99261.28
2022-09-28T08:38:26.614Z,99269.09
2022-09-28T08:41:30.521Z,99270.31
2022-09-28T08:44:24.099Z,99276.31
2022-09-28T08:47:44.327Z,99277.13
2022-09-28T08:50:25.843Z,99276.53
2022-09-28T08:53:02.870Z,99274.50
2022-09-28T08:55:49.788Z,99277.94
2022-09-28T08:58:25.662Z,99279.34
2022-09-28T09:00:54.095Z,99284.56
2022-09-28T09:03:25.565Z,99282.97
2022-09-28T09:06:07.970Z,99291.38
2022-09-28T09:08:51.249Z,99289.16
2022-09-28T09:11:34.099Z,99295.81
2022-09-28T09:14:12.733Z,99292.97
2022-09-28T09:16:49.269Z,99294.38
2022-09-28T09:19:35.558Z,99295.38
2022-09-28T09:22:21.531Z,99299.00
2022-09-28T09:24:49.594Z,99297.41
2022-09-28T09:27:36.695Z,99297.41
2022-09-28T09:30:06.264Z,99300.41
2022-09-28T09:32:35.560Z,99302.81
2022-09-28T09:35:11.475Z,99304.63
2022-09-28T09:38:04.164Z,99299.41
2022-09-28T09:41:07.042Z,99307.22
2022-09-28T09:44:15.149Z,99303.41
2022-09-28T09:47:06.138Z,99310.03
2022-09-28T09:50:05.539Z,99315.25
2022-09-28T09:52:36.992Z,99314.44
2022-09-28T09:55:14.570Z,99309.81
2022-09-28T09:57:52.959Z,99316.03
2022-09-28T10:00:47.909Z,99312.38
2022-09-28T10:03:26.828Z,99311.00
2022-09-28T10:06:17.240Z,99301.91
2022-09-28T10:08:53.787Z,99307.53
2022-09-28T10:11:36.032Z,99308.75
2022-09-28T10:14:03.334Z,99312.09
2022-09-28T10:16:44.763Z,99309.97
2022-09-28T10:19:19.294Z,99306.41
2022-09-28T10:22:05.950Z,99306.06
2022-09-28T10:24:33.859Z,99300.94
2022-09-28T10:27:05.752Z,99300.06
2022-09-28T10:29:39.855Z,99311.56
2022-09-28T10:32:17.993Z,99312.75
2022-09-28T10:34:50.121Z,99316.75
2022-09-28T10:37:19.144Z,99310.47
2022-09-28T10:40:06.080Z,99318.06
2022-09-28T10:42:36.096Z,99322.72
2022-09-28T10:45:22.938Z,99315.59
2022-09-28T10:47:49.706Z,99321.59
2022-09-28T10:50:22.677Z,99315.53
2022-09-28T10:52:54.230Z,99313.75
2022-09-28T10:55:39.303Z,99323.50
2022-09-28T10:58:24.045Z,99320.34
2022-09-28T11:00:50.724Z,99323.19
2022-09-28T11:03:29.759Z,99320.53
2022-09-28T11:06:02.099Z,99321.91
2022-09-28T11:08:31.149Z,99319.38
2022-09-28T11:11:20.846Z,99323.13
2022-09-28T11:13:55.810Z,99316.59
2022-09-28T11:16:33.636Z,99319.22
2022-09-28T11:19:20.130Z,99314.97
2022-09-28T11:21:48.045Z,99325.63
2022-09-28T11:24:21.051Z,99317.66
2022-09-28T11:26:50.105Z,99318.25
2022-09-28T11:29:23.439Z,99311.84
2022-09-28T11:32:05.933Z,99307.31
2022-09-28T11:34:59.201Z,99309.28
2022-09-28T11:37:27.853Z,99311.41
2022-09-28T11:39:56.002Z,99309.28
2022-09-28T11:42:38.120Z,99306.97
2022-09-28T11:45:18.165Z,99302.47
2022-09-28T11:47:47.107Z,99312.28
2022-09-28T11:50:22.996Z,99315.69
2022-09-28T11:53:10.102Z,99320.00
2022-09-28T11:55:40.378Z,99316.03
2022-09-28T11:58:25.688Z,99315.34
2022-09-28T12:00:56.365Z,99322.50
2022-09-28T12:03:37.503Z,99321.25
2022-09-28T12:06:06.491Z,99322.31
2022-09-28T12:08:40.268Z,99327.72
2022-09-28T12:11:29.616Z,99325.84
2022-09-28T12:14:26.298Z,99324.44
2022-09-28T12:17:11.505Z,99320.72
2022-09-28T12:19:37.864Z,99318.13
2022-09-28T12:22:10.833Z,99314.38
2022-09-28T12:24:39.401Z,99307.34
2022-09-28T12:27:05.771Z,99308.59
2022-09-28T12:29:40.997Z,99302.19
2022-09-28T12:32:25.440Z,99300.56
2022-09-28T12:34:51.875Z,99311.47
2022-09-28T12:37:18.194Z,99314.81
2022-09-28T12:40:00.443Z,99314.41
2022-09-28T12:42:41.037Z,99306.22
2022-09-28T12:45:08.695Z,99304.16
2022-09-28T12:47:49.938Z,99310.91
2022-09-28T12:50:40.251Z,99302.97
2022-09-28T12:53:33.944Z,99306.88
2022-09-28T12:56:21.490Z,99306.81
2022-09-28T12:58:48.412Z,99307.03
2022-09-28T13:01:15.026Z,99303.63
2022-09-28T13:03:45.533Z,99308.94
2022-09-28T13:06:11.919Z,99308.03
2022-09-28T13:08:53.238Z,99303.28
2022-09-28T13:11:37.645Z,99308.50
2022-09-28T13:14:04.029Z,99305.81
2022-09-28T13:16:47.216Z,99304.78
2022-09-28T13:19:20.320Z,99305.03
2022-09-28T13:21:59.568Z,99309.00
2022-09-28T13:24:33.299Z,99308.22
2022-09-28T13:27:06.861Z,99298.97
2022-09-28T13:29:34.906Z,99297.25
2022-09-28T13:32:03.192Z,99290.59
2022-09-28T13:34:32.429Z,99291.91
2022-09-28T13:37:10.051Z,99297.38
2022-09-28T13:39:37.457Z,99296.53
2022-09-28T13:42:05.872Z,99290.97
2022-09-28T13:44:32.216Z,99297.41
2022-09-28T13:47:10.019Z,99294.16
2022-09-28T13:49:36.375Z,99296.72
2022-09-28T13:52:02.976Z,99297.09
2022-09-28T13:54:50.444Z,99299.63
2022-09-28T13:57:27.187Z,99299.47
2022-09-28T13:59:59.547Z,99301.91
2022-09-28T14:02:25.980Z,99299.94
2022-09-28T14:05:11.058Z,99300.56
2022-09-28T14:07:37.396Z,99309.97
2022-09-28T14:10:10.134Z,99306.84
2022-09-28T14:12:36.475Z,99308.75
2022-09-28T14:15:06.417Z,99313.84
2022-09-28T14:17:32.778Z,99316.59
2022-09-28T14:20:01.201Z,99318.50
2022-09-28T14:22:44.852Z,99319.66
2022-09-28T14:25:11.219Z,99314.69
2022-09-28T14:27:37.732Z,99316.22
2022-09-28T14:30:06.999Z,99314.09
2022-09-28T14:32:36.903Z,99311.00
2022-09-28T14:35:04.830Z,99317.06
2022-09-28T14:37:54.990Z,99324.47
2022-09-28T14:40:49.519Z,99324.53
2022-09-28T14:43:25.623Z,99328.22
2022-09-28T14:46:23.153Z,99331.38
2022-09-28T14:48:52.772Z,99330.66
2022-09-28T14:51:39.150Z,99322.41
2022-09-28T14:54:13.336Z,99325.97
2022-09-28T14:56:51.845Z,99330.06
2022-09-28T14:59:19.705Z,99324.34
2022-09-28T15:01:52.172Z,99325.69
2022-09-28T15:04:19.229Z,99336.38
2022-09-28T15:06:49.996Z,99334.88
2022-09-28T15:09:36.107Z,99330.94
2022-09-28T15:12:10.057Z,99341.41
2022-09-28T15:14:44.362Z,99345.44
2022-09-28T15:17:12.198Z,99338.28
2022-09-28T15:19:44.725Z,99343.84
2022-09-28T15:22:17.656Z,99348.38
2022-09-28T15:24:58.727Z,99352.94
2022-09-28T15:27:35.576Z,99366.94
2022-09-28T15:30:16.198Z,99362.53
2022-09-28T15:32:42.573Z,99375.03
2022-09-28T15:35:11.722Z,99380.41
2022-09-28T15:37:40.679Z,99374.78
2022-09-28T15:40:12.715Z,99379.66
2022-09-28T15:42:39.167Z,99398.63
2022-09-28T15:45:08.619Z,99403.41
2022-09-28T15:47:39.894Z,99404.03
2022-09-28T15:50:09.166Z,99412.19
2022-09-28T15:52:37.784Z,99411.19
2022-09-28T15:55:12.489Z,99419.53
2022-09-28T15:57:39.945Z,99413.38
2022-09-28T16:00:21.786Z,99423.06
2022-09-28T16:03:20.382Z,99418.78
2022-09-28T16:05:49.422Z,99424.47
2022-09-28T16:08:21.245Z,99425.72
2022-09-28T16:10:56.653Z,99422.78
2022-09-28T16:13:24.215Z,99424.00
2022-09-28T16:15:55.467Z,99426.22
2022-09-28T16:18:23.478Z,99422.66
2022-09-28T16:20:51.481Z,99424.25
2022-09-28T16:23:17.909Z,99426.25
2022-09-28T16:25:51.648Z,99429.84
2022-09-28T16:28:25.185Z,99430.50
2022-09-28T16:31:06.557Z,99426.47
2022-09-28T16:33:40.578Z,99426.25
2022-09-28T16:36:12.301Z,99431.00
2022-09-28T16:38:38.785Z,99442.56
2022-09-28T16:41:05.700Z,99443.97
2022-09-28T16:43:34.906Z,99445.78
2022-09-28T16:46:13.101Z,99440.31
2022-09-28T16:48:48.655Z,99452.81
2022-09-28T16:51:19.194Z,99455.41
2022-09-28T16:54:04.403Z,99448.13
2022-09-28T16:56:34.292Z,99441.72
2022-09-28T16:59:02.060Z,99448.59
2022-09-28T17:01:30.045Z,99448.00
2022-09-28T17:03:56.739Z,99449.78
2022-09-28T17:06:26.929Z,99448.94
2022-09-28T17:08:56.522Z,99443.69
2022-09-28T17:11:24.892Z,99439.41
2022-09-28T17:13:52.037Z,99445.94
2022-09-28T17:16:32.270Z,99442.09
2022-09-28T17:19:03.452Z,99442.94
2022-09-28T17:21:29.841Z,99434.22
2022-09-28T17:23:56.257Z,99438.16
2022-09-28T17:26:29.211Z,99428.25
2022-09-28T17:28:55.682Z,99426.00
2022-09-28T17:31:22.129Z,99419.56
2022-09-28T17:33:48.542Z,99430.00
2022-09-28T17:36:16.021Z,99422.78
2022-09-28T17:38:42.888Z,99431.03
2022-09-28T17:41:16.799Z,99441.69
2022-09-28T17:43:46.240Z,99443.13
2022-09-28T17:46:32.876Z,99449.78
2022-09-28T17:49:00.428Z,99454.63
2022-09-28T17:51:30.960Z,99458.25
2022-09-28T17:53:57.540Z,99449.59
2022-09-28T17:56:26.471Z,99457.25
2022-09-28T17:58:56.964Z,99451.59
2022-09-28T18:01:23.719Z,99450.56
2022-09-28T18:03:50.373Z,99455.63
2022-09-28T18:06:20.137Z,99450.00
2022-09-28T18:08:46.733Z,99456.63
2022-09-28T18:11:13.100Z,99453.84
2022-09-28T18:13:40.491Z,99460.28
2022-09-28T18:16:06.999Z,99457.06
2022-09-28T18:18:36.583Z,99461.72
2022-09-28T18:21:02.935Z,99459.72
2022-09-28T18:23:29.440Z,99470.97
2022-09-28T18:25:55.817Z,99465.94
2022-09-28T18:28:22.994Z,99461.72
2022-09-28T18:30:49.423Z,99465.56
2022-09-28T18:33:15.834Z,99466.56
2022-09-28T18:35:49.732Z,99467.97
2022-09-28T18:38:16.129Z,99472.63
2022-09-28T18:40:43.026Z,99466.38
2022-09-28T18:43:09.435Z,99468.41
2022-09-28T18:45:35.957Z,99473.00
2022-09-28T18:48:02.777Z,99479.69
2022-09-28T18:50:29.318Z,99480.06
2022-09-28T18:53:11.236Z,99480.06
2022-09-28T18:55:39.127Z,99483.69
2022-09-28T18:58:06.402Z,99485.72
2022-09-28T19:00:33.666Z,99487.94
2022-09-28T19:03:01.480Z,99493.56
2022-09-28T19:05:28.324Z,99488.16
2022-09-28T19:07:55.064Z,99484.75
2022-09-28T19:10:21.458Z,99489.56
2022-09-28T19:12:47.986Z,99487.75
2022-09-28T19:15:14.435Z,99490.78
2022-09-28T19:17:40.827Z,99484.34
2022-09-28T19:20:07.578Z,99483.94
2022-09-28T19:22:33.974Z,99486.75
2022-09-28T19:25:00.483Z,99484.75
2022-09-28T19:27:26.862Z,99497.41
2022-09-28T19:29:53.196Z,99490.78
2022-09-28T19:32:19.548Z,99498.44
2022-09-28T19:34:45.901Z,99500.84
2022-09-28T19:37:12.262Z,99502.44
2022-09-28T19:39:38.621Z,99504.06
2022-09-28T19:42:05.016Z,99498.22
2022-09-28T19:44:32.883Z,99503.63
2022-09-28T19:47:07.349Z,99509.50
2022-09-28T19:49:37.805Z,99508.47
2022-09-28T19:52:20.765Z,99509.66
2022-09-28T19:54:56.653Z,99508.28
2022-09-28T19:57:24.729Z,99513.50
2022-09-28T19:59:53.289Z,99513.50
2022-09-28T20:02:21.272Z,99519.09
2022-09-28T20:04:47.704Z,99516.31
2022-09-28T20:07:14.348Z,99524.53
2022-09-28T20:09:41.048Z,99521.53
2022-09-28T20:12:07.632Z,99531.19
2022-09-28T20:14:37.965Z,99523.53
2022-09-28T20:17:06.599Z,99524.13
2022-09-28T20:19:33.499Z,99522.13
2022-09-28T20:22:02.478Z,99518.09
2022-09-28T20:24:29.219Z,99519.91
2022-09-28T20:26:55.841Z,99525.53
2022-09-28T20:29:22.972Z,99526.34
2022-09-28T20:31:49.342Z,99528.53
2022-09-28T20:34:15.810Z,99530.13
2022-09-28T20:36:44.464Z,99535.34
2022-09-28T20:39:11.269Z,99531.34
2022-09-28T20:41:37.713Z,99532.16
2022-09-28T20:44:05.915Z,99525.72
2022-09-28T20:46:33.218Z,99522.50
2022-09-28T20:48:59.823Z,99523.09
2022-09-28T20:51:26.314Z,99522.28
2022-09-28T20:53:53.652Z,99520.69
2022-09-28T20:56:21.820Z,99532.34
2022-09-28T20:58:50.876Z,99529.31
2022-09-28T21:01:18.888Z,99534.53
2022-09-28T21:03:52.708Z,99528.50
2022-09-28T21:06:20.328Z,99523.84
2022-09-28T21:08:46.736Z,99523.25
2022-09-28T21:11:14.059Z,99525.03
2022-09-28T21:13:42.773Z,99525.03
2022-09-28T21:16:10.654Z,99522.66
2022-09-28T21:18:37.547Z,99524.22
2022-09-28T21:21:05.759Z,99529.84
2022-09-28T21:23:32.132Z,99529.63
2022-09-28T21:26:05.868Z,99533.03
2022-09-28T21:28:32.824Z,99532.63
2022-09-28T21:30:59.629Z,99530.00
2022-09-28T21:33:26.066Z,99538.66
2022-09-28T21:35:52.532Z,99534.63
2022-09-28T21:38:18.913Z,99537.22
2022-09-28T21:40:45.369Z,99534.44
2022-09-28T21:43:12.073Z,99540.81
2022-09-28T21:45:39.534Z,99540.59
2022-09-28T21:48:05.948Z,99541.81
2022-09-28T21:50:33.196Z,99537.38
2022-09-28T21:53:00.158Z,99540.19
2022-09-28T21:55:26.536Z,99544.00
2022-09-28T21:57:52.929Z,99542.97
2022-09-28T22:00:22.994Z,99545.41
2022-09-28T22:02:49.850Z,99544.97
2022-09-28T22:05:16.867Z,99547.97
2022-09-28T22:07:43.391Z,99545.75
2022-09-28T22:10:13.998Z,99547.34
2022-09-28T22:12:40.410Z,99535.72
2022-09-28T22:15:07.133Z,99545.31
2022-09-28T22:17:33.529Z,99538.47
2022-09-28T22:19:59.988Z,99543.31
2022-09-28T22:22:29.196Z,99547.28
2022-09-28T22:24:56.074Z,99547.09
2022-09-28T22:27:22.545Z,99549.91
2022-09-28T22:29:49.146Z,99552.09
2022-09-28T22:32:15.488Z,99547.47
2022-09-28T22:34:41.904Z,99545.88
2022-09-28T22:37:08.339Z,99559.31
2022-09-28T22:39:37.731Z,99549.50
2022-09-28T22:42:08.158Z,99546.69
2022-09-28T22:44:35.667Z,99544.06
2022-09-28T22:47:03.426Z,99548.09
2022-09-28T22:49:29.812Z,99537.66
2022-09-28T22:51:56.189Z,99544.25
2022-09-28T22:54:22.575Z,99550.84
2022-09-28T22:56:48.900Z,99559.47
2022-09-28T22:59:15.281Z,99558.47
2022-09-28T23:01:41.684Z,99555.44
2022-09-28T23:04:08.963Z,99566.66
2022-09-28T23:06:35.306Z,99554.41
2022-09-28T23:09:01.669Z,99552.78
2022-09-28T23:11:28.831Z,99550.06
2022-09-28T23:13:56.450Z,99555.28
2022-09-28T23:16:25.322Z,99554.81
2022-09-28T23:18:52.503Z,99551.22
2022-09-28T23:21:20.403Z,99552.63
2022-09-28T23:23:50.484Z,99548.81
2022-09-28T23:26:18.296Z,99549.91
2022-09-28T23:28:45.016Z,99553.81
2022-09-28T23:31:13.313Z,99549.38
2022-09-28T23:33:39.805Z,99548.34
2022-09-28T23:36:06.433Z,99546.38
2022-09-28T23:38:32.789Z,99550.88
2022-09-28T23:40:59.180Z,99546.53
2022-09-28T23:43:25.747Z,99554.34
2022-09-28T23:45:52.419Z,99544.06
2022-09-28T23:48:18.773Z,99542.28
2022-09-28T23:50:45.441Z,99543.25
2022-09-28T23:53:14.034Z,99550.97
2022-09-28T23:55:41.877Z,99552.91
2022-09-28T23:58:08.283Z,99551.19
